Weather at Vuollerim Airstrip

Public forecast

Using degrees Celsius for public forecast. Weather courtesy of forecast.io.

Closest aviation weather report (METAR) to Vuollerim Airstrip

Report is more than 6 hours old.

Closest report is Vidsel Air Base, 35.6 nm (65.9 km) SSW.

2022/11/14 15:20 (retrieved 2 years ago)

ESPE 141520Z VRB01KT CAVOK M09/M10 Q1020

Closest aviation forecast (TAF) to Vuollerim Airstrip

Forecast is more than 12 hours old.

Closest forecast is Rovaniemi Airport, 124.6 nm (230.8 km) E.

2023/02/22 18:19 Ammendment (retrieved 1 year ago)

TAF AMD EFRO 221814Z 2218/2318 15007KT 9999 FEW005 TEMPO 2218/2220 4000 -SN BKN004 BECMG 2220/2222 BKN008 TEMPO 2222/2303 BKN004 BECMG 2303/2305 4000 -SN TEMPO 2305/2314 1200 SN BKN012 BECMG 2316/2318 0700 FZFG BKN004